createdAt,value
2023-04-07T00:00:27.283Z,58.01
2023-04-07T00:01:27.378Z,53.01
2023-04-07T00:02:27.362Z,53.50
2023-04-07T00:03:27.374Z,52.37
2023-04-07T00:04:27.415Z,46.57
2023-04-07T00:05:27.241Z,48.02
2023-04-07T00:06:27.213Z,49.31
2023-04-07T00:07:27.213Z,54.14
2023-04-07T00:08:27.201Z,47.21
2023-04-07T00:09:27.196Z,49.15
2023-04-07T00:10:27.264Z,53.50
2023-04-07T00:11:27.161Z,50.60
2023-04-07T00:12:27.175Z,50.11
2023-04-07T00:13:27.968Z,56.24
2023-04-07T00:14:27.286Z,50.92
2023-04-07T00:15:27.110Z,48.98
2023-04-07T00:16:27.224Z,48.02
2023-04-07T00:17:28.166Z,54.46
2023-04-07T00:18:27.078Z,56.24
2023-04-07T00:19:27.119Z,46.73
2023-04-07T00:20:27.101Z,50.76
2023-04-07T00:21:27.051Z,51.40
2023-04-07T00:22:27.022Z,47.21
2023-04-07T00:23:27.020Z,47.37
2023-04-07T00:24:33.930Z,47.86
2023-04-07T00:25:29.020Z,51.08
2023-04-07T00:26:26.986Z,57.52
2023-04-07T00:27:26.969Z,58.17
2023-04-07T00:28:26.929Z,48.82
2023-04-07T00:29:26.951Z,48.82
2023-04-07T00:30:26.963Z,53.66
2023-04-07T00:31:27.021Z,51.08
2023-04-07T00:32:26.930Z,58.33
2023-04-07T00:33:26.897Z,58.01
2023-04-07T00:34:26.915Z,47.05
2023-04-07T00:35:26.902Z,53.50
2023-04-07T00:36:26.851Z,53.50
2023-04-07T00:37:26.846Z,55.43
2023-04-07T00:38:26.869Z,62.04
2023-04-07T00:39:26.837Z,55.75
2023-04-07T00:40:26.835Z,56.07
2023-04-07T00:41:26.833Z,57.04
2023-04-07T00:42:26.823Z,61.87
2023-04-07T00:43:26.855Z,54.14
2023-04-07T00:44:26.800Z,48.18
2023-04-07T00:45:26.788Z,48.66
2023-04-07T00:46:26.855Z,58.49
2023-04-07T00:47:26.811Z,48.02
2023-04-07T00:48:26.717Z,48.18
2023-04-07T00:49:26.742Z,49.79
2023-04-07T00:50:26.730Z,51.72
2023-04-07T00:51:26.689Z,58.65
2023-04-07T00:52:26.752Z,60.42
2023-04-07T00:53:26.840Z,51.24
2023-04-07T00:54:26.660Z,48.98
2023-04-07T00:55:26.657Z,50.76
2023-04-07T00:56:26.643Z,58.17
2023-04-07T00:57:26.654Z,51.08
2023-04-07T00:58:26.606Z,50.11
2023-04-07T00:59:26.662Z,50.92
2023-04-07T01:00:26.668Z,45.92
2023-04-07T01:01:26.694Z,45.44
2023-04-07T01:02:26.869Z,54.95
2023-04-07T01:03:26.878Z,59.46
2023-04-07T01:04:26.618Z,48.02
2023-04-07T01:05:26.560Z,50.76
2023-04-07T01:06:26.533Z,52.21
2023-04-07T01:07:26.517Z,50.92
2023-04-07T01:08:27.501Z,54.62
2023-04-07T01:09:26.499Z,47.05
2023-04-07T01:10:26.628Z,49.31
2023-04-07T01:11:26.508Z,53.50
2023-04-07T01:12:26.454Z,48.50
2023-04-07T01:13:26.457Z,57.85
2023-04-07T01:14:26.450Z,48.82
2023-04-07T01:15:26.445Z,50.11
2023-04-07T01:16:26.449Z,55.59
2023-04-07T01:17:27.295Z,54.95
2023-04-07T01:18:26.394Z,57.85
2023-04-07T01:19:26.359Z,48.18
2023-04-07T01:20:26.356Z,47.53
2023-04-07T01:21:26.356Z,48.34
2023-04-07T01:22:26.327Z,52.37
2023-04-07T01:23:26.330Z,53.17
2023-04-07T01:24:26.332Z,49.31
2023-04-07T01:25:26.322Z,50.92
2023-04-07T01:26:26.320Z,54.62
2023-04-07T01:27:26.370Z,52.37
2023-04-07T01:28:26.276Z,48.98
2023-04-07T01:29:26.248Z,53.98
2023-04-07T01:30:26.259Z,51.24
2023-04-07T01:31:26.254Z,50.92
2023-04-07T01:32:26.329Z,54.30
2023-04-07T01:33:26.224Z,48.50
2023-04-07T01:34:26.209Z,48.34
2023-04-07T01:35:26.159Z,51.24
2023-04-07T01:36:26.171Z,62.36
2023-04-07T01:37:26.185Z,58.97
2023-04-07T01:38:26.175Z,50.60
2023-04-07T01:39:26.148Z,47.21
2023-04-07T01:40:26.130Z,47.21
2023-04-07T01:41:26.138Z,50.27
2023-04-07T01:42:26.098Z,50.76
2023-04-07T01:43:26.091Z,50.43
2023-04-07T01:44:26.126Z,49.79
2023-04-07T01:45:26.131Z,57.04
2023-04-07T01:46:26.077Z,48.98
2023-04-07T01:47:26.151Z,47.37
2023-04-07T01:48:26.075Z,50.11
2023-04-07T01:49:26.081Z,53.82
2023-04-07T01:50:26.020Z,60.42
2023-04-07T01:51:26.022Z,49.79
2023-04-07T01:52:25.992Z,51.72
2023-04-07T01:53:25.988Z,48.98
2023-04-07T01:54:25.957Z,50.43
2023-04-07T01:55:25.960Z,48.50
2023-04-07T01:56:25.944Z,48.66
2023-04-07T01:57:25.957Z,48.98
2023-04-07T01:58:25.924Z,48.98
2023-04-07T01:59:25.981Z,54.95
2023-04-07T02:00:25.910Z,48.34
2023-04-07T02:01:25.973Z,48.02
2023-04-07T02:02:26.012Z,56.56
2023-04-07T02:03:26.003Z,49.79
2023-04-07T02:04:25.923Z,47.86
2023-04-07T02:05:25.874Z,48.34
2023-04-07T02:06:25.868Z,46.73
2023-04-07T02:07:25.846Z,49.15
2023-04-07T02:08:25.835Z,46.73
2023-04-07T02:09:25.851Z,48.02
2023-04-07T02:10:25.846Z,49.31
2023-04-07T02:11:25.827Z,53.17
2023-04-07T02:12:25.822Z,51.88
2023-04-07T02:13:25.788Z,53.50
2023-04-07T02:14:25.794Z,48.98
2023-04-07T02:15:25.720Z,47.05
2023-04-07T02:16:25.756Z,55.59
2023-04-07T02:17:25.739Z,51.08
2023-04-07T02:18:58.319Z,47.37
2023-04-07T02:19:25.718Z,46.89
2023-04-07T02:20:59.230Z,48.98
2023-04-07T02:21:25.729Z,50.60
2023-04-07T02:22:25.649Z,48.18
2023-04-07T02:23:25.647Z,48.50
2023-04-07T02:24:25.642Z,48.66
2023-04-07T02:25:25.677Z,50.60
2023-04-07T02:26:25.623Z,47.70
2023-04-07T02:27:25.595Z,54.46
2023-04-07T02:28:25.748Z,52.21
2023-04-07T02:29:25.572Z,47.21
2023-04-07T02:30:25.582Z,56.72
2023-04-07T02:31:25.635Z,57.20
2023-04-07T02:32:25.657Z,50.76
2023-04-07T02:33:25.562Z,48.82
2023-04-07T02:34:25.551Z,47.86
2023-04-07T02:35:25.530Z,49.95
2023-04-07T02:36:25.523Z,54.30
2023-04-07T02:37:25.534Z,49.47
2023-04-07T02:38:25.505Z,48.50
2023-04-07T02:39:25.500Z,49.15
2023-04-07T02:40:25.466Z,50.11
2023-04-07T02:41:25.455Z,47.86
2023-04-07T02:42:25.468Z,48.66
2023-04-07T02:43:25.466Z,48.18
2023-04-07T02:44:25.427Z,48.82
2023-04-07T02:45:25.394Z,49.47
2023-04-07T02:46:25.475Z,48.98
2023-04-07T02:47:25.382Z,48.50
2023-04-07T02:48:25.382Z,49.47
2023-04-07T02:49:25.345Z,48.82
2023-04-07T02:50:25.329Z,51.08
2023-04-07T02:51:25.337Z,57.52
2023-04-07T02:52:26.249Z,54.95
2023-04-07T02:53:25.286Z,49.95
2023-04-07T02:54:25.326Z,49.15
2023-04-07T02:55:25.268Z,49.47
2023-04-07T02:56:25.250Z,62.68
2023-04-07T02:57:25.252Z,51.08
2023-04-07T02:58:25.267Z,52.05
2023-04-07T02:59:25.233Z,48.34
2023-04-07T03:00:25.248Z,48.18
2023-04-07T03:01:25.251Z,47.86
2023-04-07T03:02:25.340Z,57.52
2023-04-07T03:03:25.342Z,53.01
2023-04-07T03:04:25.280Z,52.53
2023-04-07T03:05:25.321Z,47.37
2023-04-07T03:06:25.176Z,61.39
2023-04-07T03:07:25.176Z,48.34
2023-04-07T03:08:25.150Z,54.79
2023-04-07T03:09:25.123Z,64.61
2023-04-07T03:10:25.174Z,48.66
2023-04-07T03:11:25.182Z,54.95
2023-04-07T03:12:25.075Z,53.50
2023-04-07T03:13:25.109Z,48.98
2023-04-07T03:14:25.074Z,49.31
2023-04-07T03:15:25.199Z,54.14
2023-04-07T03:16:25.094Z,54.62
2023-04-07T03:17:25.100Z,57.36
2023-04-07T03:18:25.053Z,57.04
2023-04-07T03:19:25.037Z,48.18
2023-04-07T03:20:25.032Z,48.50
2023-04-07T03:21:25.023Z,56.40
2023-04-07T03:22:25.050Z,56.07
2023-04-07T03:23:24.996Z,62.20
2023-04-07T03:24:24.983Z,53.01
2023-04-07T03:25:24.977Z,52.21
2023-04-07T03:26:24.956Z,50.27
2023-04-07T03:27:24.958Z,49.79
2023-04-07T03:28:24.921Z,61.39
2023-04-07T03:29:24.913Z,54.14
2023-04-07T03:30:24.943Z,64.45
2023-04-07T03:31:24.949Z,54.14
2023-04-07T03:32:24.921Z,56.88
2023-04-07T03:33:24.919Z,64.29
2023-04-07T03:34:24.854Z,62.36
2023-04-07T03:35:25.034Z,59.30
2023-04-07T03:36:24.901Z,61.55
2023-04-07T03:37:24.841Z,59.78
2023-04-07T03:38:24.886Z,56.07
2023-04-07T03:39:24.801Z,63.65
2023-04-07T03:40:24.777Z,64.94
2023-04-07T03:41:24.805Z,64.29
2023-04-07T03:42:24.904Z,58.49
2023-04-07T03:43:24.809Z,63.16
2023-04-07T03:44:24.795Z,63.97
2023-04-07T03:45:24.731Z,58.01
2023-04-07T03:46:24.753Z,50.27
2023-04-07T03:47:24.754Z,55.75
2023-04-07T03:48:24.705Z,58.81
2023-04-07T03:49:24.767Z,59.30
2023-04-07T03:50:24.699Z,60.59
2023-04-07T03:51:24.769Z,60.59
2023-04-07T03:52:24.657Z,55.91
2023-04-07T03:53:24.679Z,51.72
2023-04-07T03:54:24.659Z,63.33
2023-04-07T03:55:24.645Z,62.36
2023-04-07T03:56:24.779Z,60.75
2023-04-07T03:57:24.609Z,54.95
2023-04-07T03:58:25.596Z,63.33
2023-04-07T03:59:24.654Z,65.58
2023-04-07T04:00:24.633Z,50.76
2023-04-07T04:01:24.552Z,61.87
2023-04-07T04:02:24.573Z,63.00
2023-04-07T04:03:24.698Z,58.81
2023-04-07T04:04:24.645Z,62.84
2023-04-07T04:05:24.516Z,64.94
2023-04-07T04:06:24.550Z,57.85
2023-04-07T04:07:24.471Z,61.55
2023-04-07T04:08:24.576Z,62.68
2023-04-07T04:09:24.487Z,60.59
2023-04-07T04:10:24.972Z,59.30
2023-04-07T04:11:25.101Z,60.26
2023-04-07T04:12:24.479Z,59.78
2023-04-07T04:13:24.576Z,51.88
2023-04-07T04:14:24.628Z,64.45
2023-04-07T04:15:24.554Z,62.20
2023-04-07T04:16:24.423Z,57.20
2023-04-07T04:17:24.642Z,53.33
2023-04-07T04:18:24.417Z,57.85
2023-04-07T04:19:24.361Z,60.75
2023-04-07T04:20:24.468Z,59.46
2023-04-07T04:21:24.452Z,64.45
2023-04-07T04:22:24.393Z,64.13
2023-04-07T04:23:24.349Z,66.39
2023-04-07T04:24:24.515Z,63.00
2023-04-07T04:25:24.392Z,60.59
2023-04-07T04:26:24.302Z,65.58
2023-04-07T04:27:24.285Z,67.03
2023-04-07T04:28:24.318Z,56.72
2023-04-07T04:29:24.275Z,65.90
2023-04-07T04:30:24.245Z,64.61
2023-04-07T04:31:24.228Z,59.94
2023-04-07T04:32:24.325Z,66.06
2023-04-07T04:33:24.263Z,65.58
2023-04-07T04:34:24.194Z,63.33
2023-04-07T04:35:24.188Z,66.55
2023-04-07T04:36:24.224Z,66.55
2023-04-07T04:37:24.168Z,64.61
2023-04-07T04:38:24.763Z,70.90
2023-04-07T04:39:24.172Z,67.51
2023-04-07T04:40:24.124Z,68.64
2023-04-07T04:41:24.136Z,67.35
2023-04-07T04:42:24.650Z,64.45
2023-04-07T04:43:24.114Z,63.33
2023-04-07T04:44:24.115Z,71.70
2023-04-07T04:45:24.094Z,62.36
2023-04-07T04:46:24.170Z,63.33
2023-04-07T04:47:24.292Z,68.64
2023-04-07T04:48:24.060Z,65.58
2023-04-07T04:49:24.094Z,62.36
2023-04-07T04:50:24.063Z,51.24
2023-04-07T04:51:24.096Z,57.20
2023-04-07T04:52:24.012Z,62.84
2023-04-07T04:53:24.016Z,63.97
2023-04-07T04:54:23.966Z,58.65
2023-04-07T04:55:23.997Z,64.94
2023-04-07T04:56:23.989Z,63.49
2023-04-07T04:57:23.951Z,63.49
2023-04-07T04:58:24.007Z,59.78
2023-04-07T04:59:23.913Z,60.26
2023-04-07T05:00:23.914Z,60.75
2023-04-07T05:01:23.943Z,62.36
2023-04-07T05:02:24.025Z,52.69
2023-04-07T05:03:24.133Z,57.69
2023-04-07T05:04:24.174Z,57.20
2023-04-07T05:05:23.851Z,63.65
2023-04-07T05:06:23.930Z,66.71
2023-04-07T05:07:23.866Z,57.20
2023-04-07T05:08:23.861Z,59.30
2023-04-07T05:09:23.815Z,56.88
2023-04-07T05:10:23.801Z,58.01
2023-04-07T05:11:23.843Z,59.30
2023-04-07T05:12:23.812Z,62.52
2023-04-07T05:13:23.777Z,61.39
2023-04-07T05:14:23.778Z,55.91
2023-04-07T05:15:23.795Z,56.07
2023-04-07T05:16:23.852Z,55.11
2023-04-07T05:17:23.778Z,53.66
2023-04-07T05:18:23.731Z,51.24
2023-04-07T05:19:23.712Z,58.01
2023-04-07T05:20:23.719Z,59.94
2023-04-07T05:21:23.724Z,55.91
2023-04-07T05:22:23.781Z,56.07
2023-04-07T05:23:23.664Z,55.11
2023-04-07T05:24:23.656Z,52.05
2023-04-07T05:25:23.681Z,62.84
2023-04-07T05:26:23.666Z,54.14
2023-04-07T05:27:23.628Z,59.30
2023-04-07T05:28:23.610Z,63.81
2023-04-07T05:29:23.594Z,54.62
2023-04-07T05:30:23.601Z,48.66
2023-04-07T05:31:23.629Z,54.62
2023-04-07T05:32:23.590Z,54.14
2023-04-07T05:33:23.566Z,53.17
2023-04-07T05:34:23.564Z,51.88
2023-04-07T05:35:23.520Z,49.79
2023-04-07T05:36:23.566Z,57.69
2023-04-07T05:37:23.514Z,64.61
2023-04-07T05:38:23.505Z,58.17
2023-04-07T05:39:23.535Z,64.45
2023-04-07T05:40:23.475Z,64.61
2023-04-07T05:41:23.508Z,52.37
2023-04-07T05:42:23.477Z,58.97
2023-04-07T05:43:23.484Z,58.01
2023-04-07T05:44:23.436Z,57.04
2023-04-07T05:45:23.483Z,55.75
2023-04-07T05:46:23.479Z,55.27
2023-04-07T05:47:23.434Z,53.82
2023-04-07T05:48:23.376Z,51.88
2023-04-07T05:49:23.464Z,49.95
2023-04-07T05:50:23.385Z,58.65
2023-04-07T05:51:23.373Z,51.08
2023-04-07T05:52:23.392Z,56.24
2023-04-07T05:53:23.349Z,48.66
2023-04-07T05:54:23.362Z,61.39
2023-04-07T05:55:23.320Z,56.88
2023-04-07T05:56:23.337Z,51.72
2023-04-07T05:57:23.321Z,64.13
2023-04-07T05:58:23.320Z,61.71
2023-04-07T05:59:23.268Z,65.58
2023-04-07T06:00:23.251Z,63.81
2023-04-07T06:01:23.256Z,58.97
2023-04-07T06:02:23.347Z,57.20
2023-04-07T06:03:23.401Z,60.26
2023-04-07T06:04:23.248Z,57.04
2023-04-07T06:05:23.257Z,60.26
2023-04-07T06:06:23.283Z,66.55
2023-04-07T06:07:23.266Z,65.74
2023-04-07T06:08:23.180Z,53.17
2023-04-07T06:09:23.180Z,52.05
2023-04-07T06:10:23.163Z,63.49
2023-04-07T06:11:23.157Z,62.36
2023-04-07T06:12:23.142Z,62.84
2023-04-07T06:13:23.129Z,63.81
2023-04-07T06:14:23.123Z,50.92
2023-04-07T06:15:23.112Z,57.69
2023-04-07T06:16:23.123Z,51.56
2023-04-07T06:17:23.113Z,63.16
2023-04-07T06:18:23.074Z,52.37
2023-04-07T06:19:55.485Z,61.87
2023-04-07T06:20:23.130Z,63.65
2023-04-07T06:21:23.051Z,57.20
2023-04-07T06:22:23.044Z,60.42
2023-04-07T06:23:23.047Z,60.42
2023-04-07T06:24:22.988Z,59.14
2023-04-07T06:25:23.012Z,51.40
2023-04-07T06:26:23.192Z,57.52
2023-04-07T06:27:23.101Z,56.72
2023-04-07T06:28:23.037Z,53.17
2023-04-07T06:29:23.059Z,51.08
2023-04-07T06:30:23.042Z,62.84
2023-04-07T06:31:23.061Z,62.68
2023-04-07T06:32:22.991Z,60.10
2023-04-07T06:33:23.075Z,61.55
2023-04-07T06:34:22.876Z,63.97
2023-04-07T06:35:23.026Z,57.36
2023-04-07T06:36:22.958Z,63.33
2023-04-07T06:37:22.932Z,56.72
2023-04-07T06:38:22.874Z,62.52
2023-04-07T06:39:22.903Z,63.65
2023-04-07T06:40:22.876Z,58.49
2023-04-07T06:41:22.868Z,64.61
2023-04-07T06:42:22.890Z,60.10
2023-04-07T06:43:22.896Z,66.06
2023-04-07T06:44:22.862Z,62.68
2023-04-07T06:45:22.880Z,58.33
2023-04-07T06:46:22.883Z,59.94
2023-04-07T06:47:22.780Z,63.81
2023-04-07T06:48:22.790Z,63.33
2023-04-07T06:49:22.881Z,64.94
2023-04-07T06:50:22.739Z,58.33
2023-04-07T06:51:22.881Z,63.16
2023-04-07T06:52:22.946Z,61.07
2023-04-07T06:53:22.885Z,61.39
2023-04-07T06:54:22.734Z,59.94
2023-04-07T06:55:22.727Z,59.78
2023-04-07T06:56:22.736Z,61.87
2023-04-07T06:57:22.686Z,63.00
2023-04-07T06:58:22.659Z,58.33
2023-04-07T06:59:22.651Z,58.17
2023-04-07T07:00:22.676Z,60.75
2023-04-07T07:01:22.743Z,63.16
2023-04-07T07:02:22.784Z,64.13
2023-04-07T07:03:22.853Z,62.84
2023-04-07T07:04:22.817Z,62.04
2023-04-07T07:05:23.668Z,61.23
2023-04-07T07:06:22.614Z,52.37
2023-04-07T07:07:22.585Z,60.26
2023-04-07T07:08:22.612Z,65.10
2023-04-07T07:09:22.536Z,60.10
2023-04-07T07:10:22.470Z,67.03
2023-04-07T07:11:22.578Z,60.42
2023-04-07T07:12:22.534Z,59.62
2023-04-07T07:13:22.600Z,61.07
2023-04-07T07:14:23.288Z,64.94
2023-04-07T07:15:22.500Z,65.10
2023-04-07T07:16:22.515Z,64.45
2023-04-07T07:17:22.521Z,64.29
2023-04-07T07:18:22.591Z,65.90
2023-04-07T07:19:22.406Z,64.78
2023-04-07T07:20:22.391Z,60.75
2023-04-07T07:21:22.338Z,64.61
2023-04-07T07:22:22.353Z,64.29
2023-04-07T07:23:22.383Z,60.59
2023-04-07T07:24:22.318Z,65.10
2023-04-07T07:25:22.336Z,63.81
2023-04-07T07:26:22.278Z,63.97
2023-04-07T07:27:22.419Z,68.64
2023-04-07T07:28:22.291Z,60.91
2023-04-07T07:29:22.524Z,60.10
2023-04-07T07:30:22.232Z,65.42
2023-04-07T07:31:23.178Z,64.29
2023-04-07T07:32:22.287Z,65.42
2023-04-07T07:33:22.303Z,63.81
2023-04-07T07:34:22.213Z,59.14
2023-04-07T07:35:22.187Z,60.42
2023-04-07T07:36:22.241Z,60.75
2023-04-07T07:37:22.173Z,68.64
2023-04-07T07:38:22.171Z,65.74
2023-04-07T07:39:22.179Z,64.13
2023-04-07T07:40:22.125Z,63.97
2023-04-07T07:41:22.135Z,66.55
2023-04-07T07:42:22.124Z,64.61
2023-04-07T07:43:22.152Z,63.81
2023-04-07T07:44:22.109Z,62.20
2023-04-07T07:45:22.061Z,65.90
2023-04-07T07:46:22.116Z,71.38
2023-04-07T07:47:22.076Z,68.64
2023-04-07T07:48:22.058Z,66.55
2023-04-07T07:49:22.133Z,63.81
2023-04-07T07:50:22.006Z,65.10
2023-04-07T07:51:22.011Z,59.62
2023-04-07T07:52:21.988Z,61.23
2023-04-07T07:53:21.998Z,65.10
2023-04-07T07:54:21.986Z,65.74
2023-04-07T07:55:21.989Z,62.68
2023-04-07T07:56:21.936Z,65.58
2023-04-07T07:57:22.115Z,64.13
2023-04-07T07:58:21.982Z,61.71
2023-04-07T07:59:21.984Z,64.61
2023-04-07T08:00:21.945Z,65.10
2023-04-07T08:01:22.008Z,64.29
2023-04-07T08:02:22.035Z,65.10
2023-04-07T08:03:21.941Z,61.39
2023-04-07T08:04:22.014Z,62.84
2023-04-07T08:05:21.849Z,67.19
2023-04-07T08:06:21.845Z,67.51
2023-04-07T08:07:22.834Z,67.19
2023-04-07T08:08:21.822Z,67.03
2023-04-07T08:09:21.798Z,65.10
2023-04-07T08:10:21.788Z,67.35
2023-04-07T08:11:21.787Z,63.81
2023-04-07T08:12:21.802Z,63.97
2023-04-07T08:13:21.743Z,63.81
2023-04-07T08:14:21.719Z,65.90
2023-04-07T08:15:21.757Z,65.26
2023-04-07T08:16:21.783Z,62.04
2023-04-07T08:17:21.697Z,65.26
2023-04-07T08:18:21.708Z,66.87
2023-04-07T08:19:21.696Z,68.00
2023-04-07T08:20:21.675Z,68.80
2023-04-07T08:21:21.657Z,64.61
2023-04-07T08:22:21.658Z,68.32
2023-04-07T08:23:21.664Z,65.58
2023-04-07T08:24:21.617Z,68.64
2023-04-07T08:25:21.643Z,68.16
2023-04-07T08:26:21.619Z,68.32
2023-04-07T08:27:21.616Z,68.96
2023-04-07T08:28:21.561Z,58.81
2023-04-07T08:29:21.621Z,68.64
2023-04-07T08:30:21.542Z,64.61
2023-04-07T08:31:21.640Z,63.49
2023-04-07T08:32:21.590Z,65.74
2023-04-07T08:33:21.528Z,67.19
2023-04-07T08:34:21.551Z,68.16
2023-04-07T08:35:21.544Z,72.83
2023-04-07T08:36:21.545Z,69.13
2023-04-07T08:37:21.526Z,67.51
2023-04-07T08:38:21.497Z,67.68
2023-04-07T08:39:21.503Z,70.42
2023-04-07T08:40:21.609Z,67.51
2023-04-07T08:41:21.520Z,66.55
2023-04-07T08:42:21.516Z,68.32
2023-04-07T08:43:21.426Z,66.87
2023-04-07T08:44:21.419Z,71.06
2023-04-07T08:45:21.390Z,68.16
2023-04-07T08:46:21.429Z,66.71
2023-04-07T08:47:21.411Z,65.10
2023-04-07T08:48:21.330Z,70.90
2023-04-07T08:49:21.397Z,63.33
2023-04-07T08:50:21.367Z,63.33
2023-04-07T08:51:21.352Z,68.96
2023-04-07T08:52:21.338Z,69.45
2023-04-07T08:53:21.322Z,67.51
2023-04-07T08:54:21.314Z,68.64
2023-04-07T08:55:21.336Z,70.42
2023-04-07T08:56:21.308Z,69.13
2023-04-07T08:57:21.312Z,69.77
2023-04-07T08:58:21.256Z,66.55
2023-04-07T08:59:21.227Z,69.93
2023-04-07T09:00:21.260Z,70.09
2023-04-07T09:01:21.280Z,67.35
2023-04-07T09:02:21.341Z,72.83
2023-04-07T09:03:21.325Z,64.61
2023-04-07T09:04:21.266Z,69.29
2023-04-07T09:05:21.230Z,67.51
2023-04-07T09:06:21.186Z,64.94
2023-04-07T09:07:21.232Z,68.00
2023-04-07T09:08:21.184Z,68.64
2023-04-07T09:09:21.149Z,66.39
2023-04-07T09:10:21.144Z,71.06
2023-04-07T09:11:21.100Z,69.61
2023-04-07T09:12:21.140Z,69.29
2023-04-07T09:13:21.103Z,70.90
2023-04-07T09:14:21.094Z,71.22
2023-04-07T09:15:21.078Z,68.00
2023-04-07T09:16:21.059Z,70.90
2023-04-07T09:17:21.052Z,66.71
2023-04-07T09:18:21.080Z,69.13
2023-04-07T09:19:21.049Z,66.71
2023-04-07T09:20:21.016Z,70.42
2023-04-07T09:21:21.041Z,69.13
2023-04-07T09:22:21.015Z,68.16
2023-04-07T09:23:20.997Z,68.96
2023-04-07T09:24:21.002Z,71.70
2023-04-07T09:25:20.942Z,70.58
2023-04-07T09:26:21.956Z,72.19
2023-04-07T09:27:20.934Z,71.38
2023-04-07T09:28:20.932Z,72.35
2023-04-07T09:29:21.003Z,69.61
2023-04-07T09:30:20.945Z,65.58
2023-04-07T09:31:20.910Z,70.74
2023-04-07T09:32:20.880Z,71.22
2023-04-07T09:33:20.852Z,70.09
2023-04-07T09:34:20.880Z,70.74
2023-04-07T09:35:20.883Z,71.70
2023-04-07T09:36:20.976Z,71.22
2023-04-07T09:37:20.841Z,68.80
2023-04-07T09:38:20.815Z,70.58
2023-04-07T09:39:20.835Z,68.64
2023-04-07T09:40:20.848Z,69.61
2023-04-07T09:41:21.848Z,71.06
2023-04-07T09:42:20.806Z,71.06
2023-04-07T09:43:20.766Z,69.61
2023-04-07T09:44:20.779Z,71.06
2023-04-07T09:45:33.328Z,70.25
2023-04-07T09:46:24.969Z,70.09
2023-04-07T09:47:20.730Z,71.38
2023-04-07T09:48:20.749Z,65.58
2023-04-07T09:49:20.775Z,70.90
2023-04-07T09:50:20.795Z,70.74
2023-04-07T09:51:20.644Z,68.16
2023-04-07T09:52:20.660Z,69.77
2023-04-07T09:53:20.620Z,69.61
2023-04-07T09:54:20.655Z,67.51
2023-04-07T09:55:20.748Z,68.64
2023-04-07T09:56:21.211Z,69.13
2023-04-07T09:57:20.652Z,69.13
2023-04-07T09:58:20.572Z,68.64
2023-04-07T09:59:20.599Z,63.97
2023-04-07T10:00:20.629Z,71.70
2023-04-07T10:01:20.626Z,70.90
2023-04-07T10:02:20.653Z,71.22
2023-04-07T10:03:20.618Z,67.35
2023-04-07T10:04:20.578Z,65.42
2023-04-07T10:05:20.525Z,70.74
2023-04-07T10:06:20.500Z,64.94
2023-04-07T10:07:20.509Z,70.58
2023-04-07T10:08:20.577Z,68.16
2023-04-07T10:09:20.467Z,70.25
2023-04-07T10:10:20.517Z,66.71
2023-04-07T10:11:20.466Z,67.19
2023-04-07T10:12:20.836Z,68.32
2023-04-07T10:13:20.434Z,67.51
2023-04-07T10:14:20.433Z,68.64
2023-04-07T10:15:20.446Z,65.58
2023-04-07T10:16:20.456Z,69.29
2023-04-07T10:17:20.393Z,67.51
2023-04-07T10:18:20.425Z,70.09
2023-04-07T10:19:20.364Z,69.45
2023-04-07T10:20:20.363Z,64.45
2023-04-07T10:21:20.362Z,71.22
2023-04-07T10:22:20.339Z,68.48
2023-04-07T10:23:20.379Z,70.09
2023-04-07T10:24:20.323Z,67.84
2023-04-07T10:25:20.300Z,69.29
2023-04-07T10:26:20.284Z,70.74
2023-04-07T10:27:20.289Z,71.54
2023-04-07T10:28:20.313Z,70.09
2023-04-07T10:29:20.304Z,69.13
2023-04-07T10:30:20.285Z,63.33
2023-04-07T10:31:20.344Z,69.77
2023-04-07T10:32:20.267Z,69.45
2023-04-07T10:33:20.235Z,66.55
2023-04-07T10:34:20.247Z,68.96
2023-04-07T10:35:20.234Z,66.87
2023-04-07T10:36:20.248Z,69.13
2023-04-07T10:37:20.174Z,70.09
2023-04-07T10:38:20.257Z,69.13
2023-04-07T10:39:20.213Z,69.61
2023-04-07T10:40:20.170Z,66.55
2023-04-07T10:41:20.113Z,68.32
2023-04-07T10:42:20.180Z,68.16
2023-04-07T10:43:21.601Z,69.61
2023-04-07T10:44:20.158Z,67.84
2023-04-07T10:45:20.074Z,65.58
2023-04-07T10:46:20.112Z,67.35
2023-04-07T10:47:20.094Z,66.39
2023-04-07T10:48:20.064Z,68.16
2023-04-07T10:49:20.144Z,65.10
2023-04-07T10:50:20.346Z,68.64
2023-04-07T10:51:20.001Z,66.55
2023-04-07T10:52:20.012Z,66.71
2023-04-07T10:53:21.015Z,64.45
2023-04-07T10:54:19.962Z,65.74
2023-04-07T10:55:20.001Z,66.87
2023-04-07T10:56:20.063Z,67.19
2023-04-07T10:57:19.965Z,68.32
2023-04-07T10:58:19.932Z,66.71
2023-04-07T10:59:19.916Z,64.94
2023-04-07T11:00:19.994Z,69.13
2023-04-07T11:01:19.968Z,63.81
2023-04-07T11:02:20.868Z,68.16
2023-04-07T11:03:20.069Z,66.87
2023-04-07T11:04:20.009Z,64.13
2023-04-07T11:05:19.832Z,66.71
2023-04-07T11:06:19.893Z,61.55
2023-04-07T11:07:19.850Z,66.39
2023-04-07T11:08:19.841Z,66.87
2023-04-07T11:09:19.803Z,68.96
2023-04-07T11:10:19.856Z,67.03
2023-04-07T11:11:19.829Z,69.61
2023-04-07T11:12:19.807Z,66.71
2023-04-07T11:13:19.805Z,67.19
2023-04-07T11:14:19.772Z,65.90
2023-04-07T11:15:19.760Z,67.84
2023-04-07T11:16:19.877Z,63.16
2023-04-07T11:17:19.746Z,64.45
2023-04-07T11:18:19.768Z,67.35
2023-04-07T11:19:19.730Z,67.68
2023-04-07T11:20:19.746Z,68.64
2023-04-07T11:21:19.821Z,66.71
2023-04-07T11:23:20.669Z,65.58
2023-04-07T11:24:19.692Z,67.35
2023-04-07T11:25:19.656Z,65.58
2023-04-07T11:26:19.662Z,66.71
2023-04-07T11:27:19.703Z,65.74
2023-04-07T11:28:19.621Z,67.03
2023-04-07T11:29:19.629Z,64.61
2023-04-07T11:30:19.587Z,66.23
2023-04-07T11:31:19.606Z,66.87
2023-04-07T11:32:19.630Z,66.87
2023-04-07T11:33:19.614Z,67.35
2023-04-07T11:34:19.539Z,68.32
2023-04-07T11:35:19.560Z,66.06
2023-04-07T11:36:19.563Z,69.93
2023-04-07T11:37:19.542Z,68.16
2023-04-07T11:38:19.600Z,63.97
2023-04-07T11:39:19.501Z,67.19
2023-04-07T11:40:20.518Z,65.74
2023-04-07T11:41:19.503Z,64.13
2023-04-07T11:42:19.507Z,67.68
2023-04-07T11:43:19.733Z,67.19
2023-04-07T11:44:19.480Z,68.16
2023-04-07T11:45:19.459Z,66.55
2023-04-07T11:46:19.499Z,66.55
2023-04-07T11:47:19.456Z,67.03
2023-04-07T11:48:19.455Z,66.23
2023-04-07T11:49:19.445Z,69.13
2023-04-07T11:50:19.419Z,70.90
2023-04-07T11:51:19.404Z,68.48
2023-04-07T11:52:19.428Z,66.87
2023-04-07T11:53:19.451Z,67.19
2023-04-07T11:54:19.399Z,68.48
2023-04-07T11:55:21.495Z,67.51
2023-04-07T11:56:19.376Z,64.94
2023-04-07T11:57:19.356Z,66.71
2023-04-07T11:58:19.303Z,68.00
2023-04-07T11:59:19.316Z,64.45
2023-04-07T12:00:19.304Z,67.19
2023-04-07T12:01:19.417Z,66.39
2023-04-07T12:02:19.416Z,65.26
2023-04-07T12:03:19.660Z,69.45
2023-04-07T12:04:19.605Z,67.51
2023-04-07T12:05:19.315Z,67.35
2023-04-07T12:06:19.244Z,68.32
2023-04-07T12:07:19.185Z,67.03
2023-04-07T12:08:19.215Z,68.96
2023-04-07T12:09:19.230Z,68.80
2023-04-07T12:10:19.180Z,69.77
2023-04-07T12:11:19.208Z,69.93
2023-04-07T12:12:19.160Z,68.80
2023-04-07T12:13:19.141Z,66.71
2023-04-07T12:14:19.178Z,68.64
2023-04-07T12:15:19.120Z,67.03
2023-04-07T12:16:19.154Z,70.25
2023-04-07T12:17:19.252Z,68.48
2023-04-07T12:18:19.148Z,66.23
2023-04-07T12:19:19.127Z,69.29
2023-04-07T12:20:19.085Z,67.03
2023-04-07T12:21:19.066Z,67.03
2023-04-07T12:22:19.070Z,68.16
2023-04-07T12:23:19.057Z,67.84
2023-04-07T12:24:19.056Z,68.16
2023-04-07T12:25:19.030Z,67.03
2023-04-07T12:26:20.571Z,69.93
2023-04-07T12:27:20.138Z,69.77
2023-04-07T12:28:18.982Z,66.23
2023-04-07T12:29:18.985Z,69.13
2023-04-07T12:30:18.993Z,69.29
2023-04-07T12:31:19.008Z,67.19
2023-04-07T12:32:18.948Z,66.23
2023-04-07T12:33:18.939Z,70.42
2023-04-07T12:34:18.982Z,71.54
2023-04-07T12:35:18.931Z,70.09
2023-04-07T12:36:18.894Z,69.45
2023-04-07T12:37:18.902Z,70.90
2023-04-07T12:38:18.873Z,72.35
2023-04-07T12:39:18.867Z,68.00
2023-04-07T12:40:18.880Z,69.93
2023-04-07T12:41:18.850Z,69.77
2023-04-07T12:42:19.746Z,70.58
2023-04-07T12:43:18.834Z,69.13
2023-04-07T12:44:18.778Z,68.48
2023-04-07T12:45:18.784Z,68.64
2023-04-07T12:46:18.984Z,68.16
2023-04-07T12:47:18.765Z,69.45
2023-04-07T12:48:18.773Z,69.61
2023-04-07T12:49:18.765Z,69.77
2023-04-07T12:50:18.937Z,70.58
2023-04-07T12:51:18.750Z,70.09
2023-04-07T12:52:18.793Z,71.54
2023-04-07T12:53:18.688Z,69.45